Wilson Cadiz — 8PSY — position and weather

sailwx.info

Track history (hours):
 
Tides and Currents Weather Stations Pressure Air Temp Water Temp Dewpoint Dewpoint Depression Visibility Wind Speed Wind Dir Waves Ship Positions

Wilson Cadiz

Last reported at 2016-Aug-26 04:33 UTC. Time now 2016-Aug-26 05:02 UTC.
Position N 55°41' E 012°39'.

Length 100 m; draft 6.2 m.

Type: Ship. MMSI: 314216000.

Date/timePositionNaut miles runAvg speedWind from/ knotsBaromVisibWave heightAir tempDewpointWater temp
2016-Aug-26 04:33N 55°41' E 012°39'0 0.1
2016-Aug-26 03:33N 55°41' E 012°39'0 0.1
2016-Aug-26 02:33N 55°41' E 012°39'1 1.5
2016-Aug-26 01:33N 55°41' E 012°41'10 9.8
2016-Aug-26 00:33N 55°51' E 012°39'1010.3
2016-Aug-25 23:33N 56°01' E 012°38'8 8.0
2016-Aug-25 22:33N 56°07' E 012°29'1111.0
2016-Aug-25 21:33N 56°14' E 012°13'1110.9
2016-Aug-25 20:33N 56°23' E 012°01'1111.3
2016-Aug-25 19:33N 56°34' E 011°57'1110.8
2016-Aug-25 18:33N 56°44' E 011°53'1010.5
2016-Aug-25 17:33N 56°54' E 011°46'1010.4
2016-Aug-25 16:33N 57°04' E 011°39'1110.4
2016-Aug-25 15:32N 57°13' E 011°32'1010.7
2016-Aug-25 14:33N 57°23' E 011°25'1010.2
2016-Aug-25 13:33N 57°32' E 011°15'1110.7
2016-Aug-25 12:32N 57°39' E 011°00'1111.0
2016-Aug-25 11:33N 57°47' E 010°45'12111.0
2016-Aug-25 00:33N 57°57' E 006°59'1110.6
2016-Aug-24 23:33N 57°60' E 006°40'1110.6
2016-Aug-24 22:33N 58°05' E 006°22'1110.8
2016-Aug-24 21:33N 58°12' E 006°07'10 9.7
2016-Aug-24 20:32N 58°19' E 005°54'9 9.2
2016-Aug-24 19:32N 58°26' E 005°42'9 9.3
2016-Aug-24 18:33N 58°32' E 005°30'1010.0
2016-Aug-24 17:33N 58°40' E 005°18'10 9.9
2016-Aug-24 16:33N 58°49' E 005°09'9 9.3
2016-Aug-24 15:33N 58°57' E 005°01'9 8.5
2016-Aug-24 14:33N 59°04' E 004°50'  
2016-Aug-20 18:22N 59°10' E 004°45'1012.0
2016-Aug-20 17:33N 59°02' E 004°55'1212.2
2016-Aug-20 16:33N 58°51' E 005°07'1212.0
2016-Aug-20 15:33N 58°41' E 005°18'1211.9
2016-Aug-20 14:33N 58°30' E 005°28'1412.7
2016-Aug-20 13:27N 58°21' E 005°48'1112.8
2016-Aug-20 12:33N 58°13' E 006°05'1312.5
2016-Aug-20 11:33N 58°05' E 006°22'1111.5
2016-Aug-20 10:33N 57°59' E 006°41'1211.8
2016-Aug-20 09:33N 57°56' E 007°02'12111.6
2016-Aug-19 23:10N 57°48' E 010°49'1111.4
2016-Aug-19 22:14N 57°41' E 011°03'811.8
2016-Aug-19 21:33N 57°35' E 011°13'1211.6
2016-Aug-19 20:33N 57°26' E 011°27'1211.8
2016-Aug-19 19:33N 57°15' E 011°34'1211.4
2016-Aug-19 18:31N 57°04' E 011°42'1111.1
2016-Aug-19 17:32N 56°54' E 011°49'1111.2
2016-Aug-19 16:33N 56°43' E 011°55'1111.0
2016-Aug-19 15:33N 56°33' E 011°59'2110.5
2016-Aug-19 13:32N 56°14' E 012°16'1211.7
2016-Aug-19 12:33N 56°07' E 012°33'1212.1
2016-Aug-19 11:33N 55°57' E 012°43'1211.8
2016-Aug-19 10:33N 55°45' E 012°42'1211.9
2016-Aug-19 09:33N 55°33' E 012°42'1211.5
2016-Aug-19 08:33N 55°22' E 012°41'1010.1
2016-Aug-19 07:33N 55°15' E 012°55'7811.0
2016-Aug-19 00:32N 54°12' E 014°13'1111.1
2016-Aug-18 23:33N 54°02' E 014°16'9 8.9
2016-Aug-18 22:33N 53°53' E 014°16'10 9.7
2016-Aug-18 21:33N 53°45' E 014°25'1110.6
2016-Aug-18 20:33N 53°36' E 014°35'9 8.9
2016-Aug-18 19:33N 53°27' E 014°36'3 2.7
2016-Aug-18 18:33N 53°24' E 014°36'0 0.0
2016-Aug-18 17:33N 53°24' E 014°36'0 0.0
2016-Aug-18 16:33N 53°24' E 014°36'0 0.0
2016-Aug-18 15:33N 53°24' E 014°36'0 0.0
2016-Aug-18 14:33N 53°24' E 014°36'0 0.0
2016-Aug-18 13:33N 53°24' E 014°36'0 0.0
2016-Aug-18 12:33N 53°24' E 014°36'0 0.0
2016-Aug-18 11:33N 53°24' E 014°36'0 0.0
2016-Aug-18 10:33N 53°24' E 014°36'0 0.0
2016-Aug-18 09:33N 53°24' E 014°36'0 0.0
2016-Aug-18 08:30N 53°24' E 014°36'0 0.0
2016-Aug-18 07:33N 53°24' E 014°36'0 0.0
2016-Aug-18 06:33N 53°24' E 014°36'0 0.0
2016-Aug-18 05:33N 53°24' E 014°36'0 0.0
2016-Aug-18 04:33N 53°24' E 014°36'0 0.0
2016-Aug-18 03:33N 53°24' E 014°36'0 0.0
2016-Aug-18 02:33N 53°24' E 014°36'0 0.0
2016-Aug-18 01:33N 53°24' E 014°36'0 0.0
2016-Aug-18 00:33N 53°24' E 014°36'0 0.0
2016-Aug-17 23:33N 53°24' E 014°36'0 0.0
2016-Aug-17 22:33N 53°24' E 014°36'0 0.0
2016-Aug-17 21:33N 53°24' E 014°36'5 5.2
2016-Aug-17 20:34N 53°30' E 014°37'0 0.1
2016-Aug-17 19:32N 53°30' E 014°37'0 0.0
2016-Aug-17 18:32N 53°30' E 014°37'0 0.0
2016-Aug-17 17:29N 53°30' E 014°37'0 0.0
2016-Aug-17 16:32N 53°30' E 014°37'0 0.0
2016-Aug-17 15:32N 53°30' E 014°37'0 0.0
2016-Aug-17 14:32N 53°30' E 014°37'0 0.0
2016-Aug-17 13:32N 53°30' E 014°37'0 0.0
2016-Aug-17 12:32N 53°30' E 014°37'0 0.0
2016-Aug-17 11:32N 53°30' E 014°37'0 0.0
2016-Aug-17 10:32N 53°30' E 014°37'0 0.0
2016-Aug-17 09:32N 53°30' E 014°37'0 0.0
2016-Aug-17 08:32N 53°30' E 014°37'0 0.0
2016-Aug-17 07:32N 53°30' E 014°37'0 0.0
2016-Aug-17 06:32N 53°30' E 014°37'0 0.0
2016-Aug-17 05:32N 53°30' E 014°37'0 0.0
2016-Aug-17 04:29N 53°30' E 014°37'0 0.0
2016-Aug-17 03:32N 53°30' E 014°37'0 0.0
2016-Aug-17 02:32N 53°30' E 014°37'0 0.0
2016-Aug-17 01:32N 53°30' E 014°37'0 0.0
2016-Aug-17 00:32N 53°30' E 014°37'0 0.0
2016-Aug-16 23:32N 53°30' E 014°37'5 5.0
2016-Aug-16 22:33N 53°25' E 014°37'0 0.2
2016-Aug-16 21:32N 53°25' E 014°37'0 0.0
2016-Aug-16 20:32N 53°25' E 014°37'0 0.0
2016-Aug-16 19:32N 53°25' E 014°37'0 0.0
2016-Aug-16 18:32N 53°25' E 014°37'0 0.0
2016-Aug-16 17:32N 53°25' E 014°37'0 0.0
2016-Aug-16 16:32N 53°25' E 014°37'0 0.0
2016-Aug-16 15:32N 53°25' E 014°37'0 0.0
2016-Aug-16 14:32N 53°25' E 014°37'0 0.0
2016-Aug-16 13:32N 53°25' E 014°37'0 0.0
2016-Aug-16 12:32N 53°25' E 014°37'0 0.0
2016-Aug-16 11:32N 53°25' E 014°37'0 0.0
2016-Aug-16 10:32N 53°25' E 014°37'0 0.0
2016-Aug-16 09:32N 53°25' E 014°37'0 0.0
2016-Aug-16 08:32N 53°25' E 014°37'0 0.0
2016-Aug-16 07:32N 53°25' E 014°37'0 0.0
2016-Aug-16 06:32N 53°25' E 014°37'  
Track history (hours):
 
Tides and Currents Weather Stations Pressure Air Temp Water Temp Dewpoint Dewpoint Depression Visibility Wind Speed Wind Dir Waves Ship Positions

Wilson Cadiz

Last reported at 2016-Aug-26 04:33 UTC. Time now 2016-Aug-26 05:02 UTC.
Position N 55°41' E 012°39'.

Length 100 m; draft 6.2 m.

Type: Ship. MMSI: 314216000.

Date/timePositionNaut miles runAvg speedWind from/ knotsBaromVisibWave heightAir tempDewpointWater temp
2016-Aug-26 04:33N 55°41' E 012°39'0 0.1
2016-Aug-26 03:33N 55°41' E 012°39'0 0.1
2016-Aug-26 02:33N 55°41' E 012°39'1 1.5
2016-Aug-26 01:33N 55°41' E 012°41'10 9.8
2016-Aug-26 00:33N 55°51' E 012°39'1010.3
2016-Aug-25 23:33N 56°01' E 012°38'8 8.0
2016-Aug-25 22:33N 56°07' E 012°29'1111.0
2016-Aug-25 21:33N 56°14' E 012°13'1110.9
2016-Aug-25 20:33N 56°23' E 012°01'1111.3
2016-Aug-25 19:33N 56°34' E 011°57'1110.8
2016-Aug-25 18:33N 56°44' E 011°53'1010.5
2016-Aug-25 17:33N 56°54' E 011°46'1010.4
2016-Aug-25 16:33N 57°04' E 011°39'1110.4
2016-Aug-25 15:32N 57°13' E 011°32'1010.7
2016-Aug-25 14:33N 57°23' E 011°25'1010.2
2016-Aug-25 13:33N 57°32' E 011°15'1110.7
2016-Aug-25 12:32N 57°39' E 011°00'1111.0
2016-Aug-25 11:33N 57°47' E 010°45'12111.0
2016-Aug-25 00:33N 57°57' E 006°59'1110.6
2016-Aug-24 23:33N 57°60' E 006°40'1110.6
2016-Aug-24 22:33N 58°05' E 006°22'1110.8
2016-Aug-24 21:33N 58°12' E 006°07'10 9.7
2016-Aug-24 20:32N 58°19' E 005°54'9 9.2
2016-Aug-24 19:32N 58°26' E 005°42'9 9.3
2016-Aug-24 18:33N 58°32' E 005°30'1010.0
2016-Aug-24 17:33N 58°40' E 005°18'10 9.9
2016-Aug-24 16:33N 58°49' E 005°09'9 9.3
2016-Aug-24 15:33N 58°57' E 005°01'9 8.5
2016-Aug-24 14:33N 59°04' E 004°50'  
2016-Aug-20 18:22N 59°10' E 004°45'1012.0
2016-Aug-20 17:33N 59°02' E 004°55'1212.2
2016-Aug-20 16:33N 58°51' E 005°07'1212.0
2016-Aug-20 15:33N 58°41' E 005°18'1211.9
2016-Aug-20 14:33N 58°30' E 005°28'1412.7
2016-Aug-20 13:27N 58°21' E 005°48'1112.8
2016-Aug-20 12:33N 58°13' E 006°05'1312.5
2016-Aug-20 11:33N 58°05' E 006°22'1111.5
2016-Aug-20 10:33N 57°59' E 006°41'1211.8
2016-Aug-20 09:33N 57°56' E 007°02'12111.6
2016-Aug-19 23:10N 57°48' E 010°49'1111.4
2016-Aug-19 22:14N 57°41' E 011°03'811.8
2016-Aug-19 21:33N 57°35' E 011°13'1211.6
2016-Aug-19 20:33N 57°26' E 011°27'1211.8
2016-Aug-19 19:33N 57°15' E 011°34'1211.4
2016-Aug-19 18:31N 57°04' E 011°42'1111.1
2016-Aug-19 17:32N 56°54' E 011°49'1111.2
2016-Aug-19 16:33N 56°43' E 011°55'1111.0
2016-Aug-19 15:33N 56°33' E 011°59'2110.5
2016-Aug-19 13:32N 56°14' E 012°16'1211.7
2016-Aug-19 12:33N 56°07' E 012°33'1212.1
2016-Aug-19 11:33N 55°57' E 012°43'1211.8
2016-Aug-19 10:33N 55°45' E 012°42'1211.9
2016-Aug-19 09:33N 55°33' E 012°42'1211.5
2016-Aug-19 08:33N 55°22' E 012°41'1010.1
2016-Aug-19 07:33N 55°15' E 012°55'7811.0
2016-Aug-19 00:32N 54°12' E 014°13'1111.1
2016-Aug-18 23:33N 54°02' E 014°16'9 8.9
2016-Aug-18 22:33N 53°53' E 014°16'10 9.7
2016-Aug-18 21:33N 53°45' E 014°25'1110.6
2016-Aug-18 20:33N 53°36' E 014°35'9 8.9
2016-Aug-18 19:33N 53°27' E 014°36'3 2.7
2016-Aug-18 18:33N 53°24' E 014°36'0 0.0
2016-Aug-18 17:33N 53°24' E 014°36'0 0.0
2016-Aug-18 16:33N 53°24' E 014°36'0 0.0
2016-Aug-18 15:33N 53°24' E 014°36'0 0.0
2016-Aug-18 14:33N 53°24' E 014°36'0 0.0
2016-Aug-18 13:33N 53°24' E 014°36'0 0.0
2016-Aug-18 12:33N 53°24' E 014°36'0 0.0
2016-Aug-18 11:33N 53°24' E 014°36'0 0.0
2016-Aug-18 10:33N 53°24' E 014°36'0 0.0
2016-Aug-18 09:33N 53°24' E 014°36'0 0.0
2016-Aug-18 08:30N 53°24' E 014°36'0 0.0
2016-Aug-18 07:33N 53°24' E 014°36'0 0.0
2016-Aug-18 06:33N 53°24' E 014°36'0 0.0
2016-Aug-18 05:33N 53°24' E 014°36'0 0.0
2016-Aug-18 04:33N 53°24' E 014°36'0 0.0
2016-Aug-18 03:33N 53°24' E 014°36'0 0.0
2016-Aug-18 02:33N 53°24' E 014°36'0 0.0
2016-Aug-18 01:33N 53°24' E 014°36'0 0.0
2016-Aug-18 00:33N 53°24' E 014°36'0 0.0
2016-Aug-17 23:33N 53°24' E 014°36'0 0.0
2016-Aug-17 22:33N 53°24' E 014°36'0 0.0
2016-Aug-17 21:33N 53°24' E 014°36'5 5.2
2016-Aug-17 20:34N 53°30' E 014°37'0 0.1
2016-Aug-17 19:32N 53°30' E 014°37'0 0.0
2016-Aug-17 18:32N 53°30' E 014°37'0 0.0
2016-Aug-17 17:29N 53°30' E 014°37'0 0.0
2016-Aug-17 16:32N 53°30' E 014°37'0 0.0
2016-Aug-17 15:32N 53°30' E 014°37'0 0.0
2016-Aug-17 14:32N 53°30' E 014°37'0 0.0
2016-Aug-17 13:32N 53°30' E 014°37'0 0.0
2016-Aug-17 12:32N 53°30' E 014°37'0 0.0
2016-Aug-17 11:32N 53°30' E 014°37'0 0.0
2016-Aug-17 10:32N 53°30' E 014°37'0 0.0
2016-Aug-17 09:32N 53°30' E 014°37'0 0.0
2016-Aug-17 08:32N 53°30' E 014°37'0 0.0
2016-Aug-17 07:32N 53°30' E 014°37'0 0.0
2016-Aug-17 06:32N 53°30' E 014°37'0 0.0
2016-Aug-17 05:32N 53°30' E 014°37'0 0.0
2016-Aug-17 04:29N 53°30' E 014°37'0 0.0
2016-Aug-17 03:32N 53°30' E 014°37'0 0.0
2016-Aug-17 02:32N 53°30' E 014°37'0 0.0
2016-Aug-17 01:32N 53°30' E 014°37'0 0.0
2016-Aug-17 00:32N 53°30' E 014°37'0 0.0
2016-Aug-16 23:32N 53°30' E 014°37'5 5.0
2016-Aug-16 22:33N 53°25' E 014°37'0 0.2
2016-Aug-16 21:32N 53°25' E 014°37'0 0.0
2016-Aug-16 20:32N 53°25' E 014°37'0 0.0
2016-Aug-16 19:32N 53°25' E 014°37'0 0.0
2016-Aug-16 18:32N 53°25' E 014°37'0 0.0
2016-Aug-16 17:32N 53°25' E 014°37'0 0.0
2016-Aug-16 16:32N 53°25' E 014°37'0 0.0
2016-Aug-16 15:32N 53°25' E 014°37'0 0.0
2016-Aug-16 14:32N 53°25' E 014°37'0 0.0
2016-Aug-16 13:32N 53°25' E 014°37'0 0.0
2016-Aug-16 12:32N 53°25' E 014°37'0 0.0
2016-Aug-16 11:32N 53°25' E 014°37'0 0.0
2016-Aug-16 10:32N 53°25' E 014°37'0 0.0
2016-Aug-16 09:32N 53°25' E 014°37'0 0.0
2016-Aug-16 08:32N 53°25' E 014°37'0 0.0
2016-Aug-16 07:32N 53°25' E 014°37'0 0.0
2016-Aug-16 06:32N 53°25' E 014°37'  

Dump ship's entire track history